Fremantle, Australia
Current Conditions -  °F | °C
As of 3:00 AM on Saturday 29 Nov 2014 (Local Time) from YPJT Reporting Station
Overcast Overcast  
Wind Chill: 64°   Ceiling: 2400
Heat Index: 64°   Visibility: 6mi
Dew Point: 57°   Wind: 7mph
Humidity: 77%   Direction: 180°S
Pressure: 29.91"   Gusts: NA
Location:  32.05°S, 115.75°E
Report Text: YPJT 281900Z AUTO 18006KT 9999 // OVC024 18/14 Q1013
Loading
Personal Weather Stations






























Interactive Weather Map New forecast layout! Learn more

10-Day Weather Forecast

Advertisements
Track Severe Weather on mobile